createdAt,value
2022-08-05T00:00:15.909Z,0.00
2022-08-05T00:01:27.490Z,0.00
2022-08-05T00:02:14.274Z,0.00
2022-08-05T00:03:15.702Z,0.00
2022-08-05T00:04:13.521Z,0.00
2022-08-05T00:06:02.844Z,0.00
2022-08-05T00:06:27.733Z,0.00
2022-08-05T00:07:27.151Z,0.00
2022-08-05T00:08:32.588Z,0.00
2022-08-05T00:09:15.782Z,0.00
2022-08-05T00:10:14.338Z,0.00
2022-08-05T00:11:20.569Z,0.00
2022-08-05T00:12:14.107Z,0.00
2022-08-05T00:13:18.551Z,0.00
2022-08-05T00:14:17.061Z,0.00
2022-08-05T00:15:54.280Z,0.00
2022-08-05T00:16:14.033Z,0.00
2022-08-05T00:17:18.803Z,0.00
2022-08-05T00:18:21.776Z,0.00
2022-08-05T00:19:13.985Z,0.00
2022-08-05T00:20:12.962Z,0.00
2022-08-05T00:21:14.258Z,0.00
2022-08-05T00:22:12.956Z,0.00
2022-08-05T00:23:13.290Z,0.00
2022-08-05T00:24:16.096Z,0.00
2022-08-05T00:25:13.920Z,0.00
2022-08-05T00:26:12.883Z,0.00
2022-08-05T00:27:14.048Z,0.00
2022-08-05T00:28:12.866Z,0.00
2022-08-05T00:29:12.864Z,0.00
2022-08-05T00:30:12.848Z,0.00
2022-08-05T00:31:12.834Z,0.00
2022-08-05T00:32:15.490Z,0.00
2022-08-05T00:34:42.310Z,0.00
2022-08-05T00:34:54.150Z,0.00
2022-08-05T00:35:13.764Z,0.00
2022-08-05T00:36:15.863Z,0.00
2022-08-05T00:37:14.415Z,0.00
2022-08-05T00:38:12.736Z,0.00
2022-08-05T00:39:13.460Z,0.00
2022-08-05T00:40:12.820Z,0.00
2022-08-05T00:41:12.679Z,0.00
2022-08-05T00:42:12.684Z,0.00
2022-08-05T00:43:15.365Z,0.00
2022-08-05T00:44:12.671Z,0.00
2022-08-05T00:45:13.548Z,0.00
2022-08-05T00:46:12.651Z,0.00
2022-08-05T00:47:12.616Z,0.00
2022-08-05T00:48:12.605Z,0.00
2022-08-05T00:49:14.021Z,0.00
2022-08-05T00:50:12.576Z,0.00
2022-08-05T00:51:50.654Z,0.00
2022-08-05T00:52:13.542Z,0.00
2022-08-05T00:53:45.007Z,0.00
2022-08-05T00:54:13.527Z,0.00
2022-08-05T00:55:12.483Z,0.00
2022-08-05T00:56:12.498Z,0.00
2022-08-05T00:57:12.488Z,0.00
2022-08-05T00:58:12.457Z,0.00
2022-08-05T00:59:12.460Z,0.00
2022-08-05T01:00:13.322Z,0.00
2022-08-05T01:01:12.423Z,0.00
2022-08-05T01:02:12.481Z,0.00
2022-08-05T01:03:22.305Z,0.00
2022-08-05T01:04:14.086Z,0.00
2022-08-05T01:05:12.371Z,0.00
2022-08-05T01:06:15.381Z,0.00
2022-08-05T01:07:13.818Z,0.00
2022-08-05T01:08:41.291Z,0.00
2022-08-05T01:09:13.325Z,0.00
2022-08-05T01:10:12.291Z,0.00
2022-08-05T01:11:13.550Z,0.00
2022-08-05T01:12:18.833Z,0.00
2022-08-05T01:13:22.306Z,0.00
2022-08-05T01:14:15.572Z,0.00
2022-08-05T01:15:18.692Z,0.00
2022-08-05T01:16:13.226Z,0.00
2022-08-05T01:17:12.247Z,0.00
2022-08-05T01:18:12.192Z,0.00
2022-08-05T01:19:12.184Z,0.00
2022-08-05T01:20:12.163Z,0.00
2022-08-05T01:21:12.145Z,0.00
2022-08-05T01:22:15.653Z,0.00
2022-08-05T01:23:15.000Z,0.00
2022-08-05T01:24:14.133Z,0.00
2022-08-05T01:25:13.510Z,0.00
2022-08-05T01:26:12.089Z,0.00
2022-08-05T01:27:17.622Z,0.00
2022-08-05T01:28:13.096Z,0.00
2022-08-05T01:29:12.050Z,0.00
2022-08-05T01:30:12.394Z,0.00
2022-08-05T01:31:13.031Z,0.00
2022-08-05T01:32:12.515Z,0.00
2022-08-05T01:33:12.979Z,0.00
2022-08-05T01:34:13.003Z,0.00
2022-08-05T01:35:11.959Z,0.00
2022-08-05T01:36:15.983Z,0.00
2022-08-05T01:37:24.621Z,0.00
2022-08-05T01:38:14.559Z,0.00
2022-08-05T01:39:12.903Z,0.00
2022-08-05T01:40:11.904Z,0.00
2022-08-05T01:41:11.895Z,0.00
2022-08-05T01:42:11.862Z,0.00
2022-08-05T01:43:21.918Z,0.00
2022-08-05T01:44:12.833Z,0.00
2022-08-05T01:45:11.824Z,0.00
2022-08-05T01:46:16.101Z,0.00
2022-08-05T01:47:12.903Z,0.00
2022-08-05T01:48:11.796Z,0.00
2022-08-05T01:49:23.096Z,0.00
2022-08-05T01:50:15.245Z,0.00
2022-08-05T01:51:12.540Z,0.00
2022-08-05T01:52:17.354Z,0.00
2022-08-05T01:53:12.725Z,0.00
2022-08-05T01:54:11.710Z,0.00
2022-08-05T01:55:12.709Z,0.00
2022-08-05T01:56:11.676Z,0.00
2022-08-05T01:58:11.650Z,0.00
2022-08-05T01:58:40.453Z,0.00
2022-08-05T01:59:12.637Z,0.00
2022-08-05T02:00:12.306Z,0.00
2022-08-05T02:01:11.624Z,0.00
2022-08-05T02:02:11.668Z,0.00
2022-08-05T02:03:22.863Z,0.00
2022-08-05T02:04:12.560Z,0.00
2022-08-05T02:05:11.873Z,0.00
2022-08-05T02:06:37.298Z,0.00
2022-08-05T02:07:12.530Z,0.00
2022-08-05T02:08:12.536Z,0.00
2022-08-05T02:09:14.667Z,0.00
2022-08-05T02:10:11.482Z,0.00
2022-08-05T02:11:12.586Z,0.00
2022-08-05T02:12:11.468Z,0.00
2022-08-05T02:13:16.296Z,0.00
2022-08-05T02:14:12.919Z,0.00
2022-08-05T02:15:12.490Z,0.00
2022-08-05T02:16:16.402Z,0.00
2022-08-05T02:17:16.963Z,0.00
2022-08-05T02:18:31.728Z,0.00
2022-08-05T02:19:12.374Z,0.00
2022-08-05T02:20:11.360Z,0.00
2022-08-05T02:21:15.038Z,0.00
2022-08-05T02:22:17.415Z,0.00
2022-08-05T02:23:12.328Z,0.00
2022-08-05T02:24:11.297Z,0.00
2022-08-05T02:25:12.680Z,0.00
2022-08-05T02:26:11.820Z,0.00
2022-08-05T02:27:11.259Z,0.00
2022-08-05T02:28:11.264Z,0.00
2022-08-05T02:29:21.628Z,0.00
2022-08-05T02:30:12.210Z,0.00
2022-08-05T02:31:14.330Z,0.00
2022-08-05T02:32:11.233Z,0.00
2022-08-05T02:33:11.180Z,0.00
2022-08-05T02:34:11.173Z,0.00
2022-08-05T02:35:13.685Z,0.00
2022-08-05T02:36:13.639Z,0.00
2022-08-05T02:37:11.138Z,0.00
2022-08-05T02:38:11.110Z,0.00
2022-08-05T02:39:12.185Z,0.00
2022-08-05T02:40:11.082Z,0.00
2022-08-05T02:41:17.016Z,0.00
2022-08-05T02:42:12.082Z,0.00
2022-08-05T02:43:12.169Z,0.00
2022-08-05T02:44:13.251Z,0.00
2022-08-05T02:45:11.014Z,0.00
2022-08-05T02:46:11.017Z,0.00
2022-08-05T02:47:12.002Z,0.00
2022-08-05T02:48:12.328Z,0.00
2022-08-05T02:49:11.226Z,0.00
2022-08-05T02:50:10.946Z,0.00
2022-08-05T02:51:10.953Z,0.00
2022-08-05T02:52:11.577Z,0.00
2022-08-05T02:53:11.784Z,0.00
2022-08-05T02:54:11.909Z,0.00
2022-08-05T02:55:12.308Z,0.00
2022-08-05T02:56:10.883Z,0.00
2022-08-05T02:58:12.160Z,0.00
2022-08-05T02:58:13.340Z,0.00
2022-08-05T02:59:10.838Z,0.00
2022-08-05T03:00:10.824Z,0.00
2022-08-05T03:01:10.857Z,0.00
2022-08-05T03:02:10.792Z,0.00
2022-08-05T03:03:10.813Z,0.00
2022-08-05T03:04:14.410Z,0.00
2022-08-05T03:05:11.951Z,0.00
2022-08-05T03:06:53.761Z,0.00
2022-08-05T03:07:17.635Z,0.00
2022-08-05T03:08:12.113Z,0.00
2022-08-05T03:09:10.717Z,0.00
2022-08-05T03:10:13.246Z,0.00
2022-08-05T03:11:56.873Z,0.00
2022-08-05T03:12:11.654Z,1.00
2022-08-05T03:13:51.412Z,0.00
2022-08-05T03:14:46.194Z,1.00
2022-08-05T03:15:42.710Z,1.00
2022-08-05T03:16:41.731Z,1.00
2022-08-05T03:17:44.878Z,0.00
2022-08-05T03:18:42.188Z,0.00
2022-08-05T03:19:41.824Z,2.00
2022-08-05T03:20:44.617Z,2.00
2022-08-05T03:21:49.388Z,2.00
2022-08-05T03:22:44.181Z,4.00
2022-08-05T03:23:42.589Z,4.00
2022-08-05T03:24:41.569Z,4.00
2022-08-05T03:26:04.449Z,4.00
2022-08-05T03:26:42.551Z,7.00
2022-08-05T03:27:59.562Z,6.00
2022-08-05T03:28:42.534Z,6.00
2022-08-05T03:29:45.919Z,10.00
2022-08-05T03:30:42.602Z,9.00
2022-08-05T03:31:56.839Z,13.00
2022-08-05T03:32:42.470Z,15.00
2022-08-05T03:33:51.116Z,13.00
2022-08-05T03:34:42.456Z,16.00
2022-08-05T03:35:42.442Z,23.00
2022-08-05T03:36:41.412Z,18.00
2022-08-05T03:37:46.298Z,34.00
2022-08-05T03:38:42.383Z,38.00
2022-08-05T03:39:58.560Z,43.00
2022-08-05T03:40:45.065Z,46.00
2022-08-05T03:41:46.645Z,49.00
2022-08-05T03:42:52.144Z,53.00
2022-08-05T03:44:09.979Z,58.00
2022-08-05T03:44:42.323Z,66.00
2022-08-05T03:45:57.177Z,68.00
2022-08-05T03:46:42.294Z,73.00
2022-08-05T03:47:41.966Z,78.00
2022-08-05T03:48:41.261Z,81.00
2022-08-05T03:49:51.290Z,82.00
2022-08-05T03:50:42.227Z,84.00
2022-08-05T03:52:37.529Z,86.00
2022-08-05T03:55:00.046Z,87.00
2022-08-05T03:55:54.711Z,92.00
2022-08-05T03:56:00.747Z,89.00
2022-08-05T03:56:05.790Z,96.00
2022-08-05T03:56:42.157Z,98.00
2022-08-05T03:57:41.907Z,103.00
2022-08-05T03:58:41.311Z,105.00
2022-08-05T03:59:46.938Z,114.00
2022-08-05T04:00:42.174Z,115.00
2022-08-05T04:01:41.157Z,114.00
2022-08-05T04:02:51.894Z,115.00
2022-08-05T04:03:42.060Z,120.00
2022-08-05T04:04:42.046Z,124.00
2022-08-05T04:05:41.044Z,134.00
2022-08-05T04:06:47.378Z,144.00
2022-08-05T04:07:57.442Z,150.00
2022-08-05T04:08:42.000Z,152.00
2022-08-05T04:09:53.769Z,146.00
2022-08-05T04:10:41.969Z,143.00
2022-08-05T04:11:47.066Z,146.00
2022-08-05T04:13:13.515Z,0.00
2022-08-05T04:14:18.105Z,171.00
2022-08-05T04:15:15.532Z,174.00
2022-08-05T04:16:14.283Z,170.00
2022-08-05T04:17:13.469Z,153.00
2022-08-05T04:18:20.581Z,135.00
2022-08-05T04:19:14.428Z,120.00
2022-08-05T04:20:13.430Z,108.00
2022-08-05T04:21:13.397Z,100.00
2022-08-05T04:22:14.409Z,91.00
2022-08-05T04:23:16.247Z,96.00
2022-08-05T04:24:19.107Z,90.00
2022-08-05T04:25:14.362Z,87.00
2022-08-05T04:26:13.637Z,86.00
2022-08-05T04:27:13.403Z,85.00
2022-08-05T04:28:13.367Z,82.00
2022-08-05T04:29:13.311Z,80.00
2022-08-05T04:30:13.289Z,81.00
2022-08-05T04:31:13.270Z,81.00
2022-08-05T04:32:13.276Z,80.00
2022-08-05T04:33:13.240Z,83.00
2022-08-05T04:34:31.898Z,87.00
2022-08-05T04:35:19.430Z,98.00
2022-08-05T04:36:44.640Z,115.00
2022-08-05T04:37:14.204Z,133.00
2022-08-05T04:38:15.584Z,158.00
2022-08-05T04:39:13.225Z,184.00
2022-08-05T04:40:13.165Z,213.00
2022-08-05T04:41:14.164Z,241.00
2022-08-05T04:42:13.139Z,263.00
2022-08-05T04:43:16.585Z,288.00
2022-08-05T04:44:13.097Z,328.00
2022-08-05T04:45:22.767Z,377.00
2022-08-05T04:46:14.085Z,465.00
2022-08-05T04:47:18.589Z,583.00
2022-08-05T04:48:18.618Z,721.00
2022-08-05T04:49:14.796Z,815.00
2022-08-05T04:50:13.031Z,919.00
2022-08-05T04:51:14.011Z,1011.00
2022-08-05T04:52:13.120Z,1116.00
2022-08-05T04:53:12.990Z,1204.00
2022-08-05T04:54:12.966Z,1227.00
2022-08-05T04:55:14.525Z,1275.00
2022-08-05T04:56:32.765Z,1393.00
2022-08-05T04:57:13.926Z,1595.00
2022-08-05T04:58:12.928Z,1812.00
2022-08-05T04:59:14.026Z,2004.00
2022-08-05T05:00:13.891Z,2189.00
2022-08-05T05:01:12.914Z,2365.00
2022-08-05T05:02:36.679Z,2536.00
2022-08-05T05:03:13.965Z,2675.00
2022-08-05T05:04:13.833Z,2786.00
2022-08-05T05:05:26.074Z,2836.00
2022-08-05T05:06:40.752Z,2789.00
2022-08-05T05:07:15.838Z,2642.00
2022-08-05T05:08:14.346Z,2385.00
2022-08-05T05:09:16.892Z,2105.00
2022-08-05T05:10:12.771Z,1836.00
2022-08-05T05:11:15.228Z,1607.00
2022-08-05T05:12:12.724Z,1436.00
2022-08-05T05:13:12.719Z,1312.00
2022-08-05T05:14:16.003Z,1241.00
2022-08-05T05:15:12.686Z,1210.00
2022-08-05T05:16:12.690Z,1196.00
2022-08-05T05:17:12.671Z,1232.00
2022-08-05T05:18:12.650Z,1252.00
2022-08-05T05:19:19.183Z,1231.00
2022-08-05T05:20:13.661Z,1170.00
2022-08-05T05:21:12.609Z,1119.00
2022-08-05T05:22:22.601Z,1121.00
2022-08-05T05:23:20.004Z,1175.00
2022-08-05T05:24:13.570Z,1290.00
2022-08-05T05:25:17.073Z,1438.00
2022-08-05T05:26:12.672Z,1552.00
2022-08-05T05:27:12.529Z,1603.00
2022-08-05T05:28:12.533Z,1629.00
2022-08-05T05:29:14.493Z,1646.00
2022-08-05T05:30:15.518Z,1700.00
2022-08-05T05:31:13.516Z,1771.00
2022-08-05T05:32:15.552Z,1833.00
2022-08-05T05:33:17.049Z,1891.00
2022-08-05T05:34:13.447Z,1923.00
2022-08-05T05:35:12.427Z,1856.00
2022-08-05T05:36:13.414Z,1792.00
2022-08-05T05:37:12.519Z,1786.00
2022-08-05T05:38:13.568Z,1814.00
2022-08-05T05:39:12.405Z,1895.00
2022-08-05T05:40:12.369Z,1973.00
2022-08-05T05:41:12.339Z,1996.00
2022-08-05T05:42:12.347Z,1975.00
2022-08-05T05:43:12.357Z,2020.00
2022-08-05T05:44:35.475Z,2059.00
2022-08-05T05:45:14.062Z,2046.00
2022-08-05T05:46:17.442Z,1885.00
2022-08-05T05:47:22.028Z,1582.00
2022-08-05T05:48:16.082Z,1239.00
2022-08-05T05:49:13.548Z,1056.00
2022-08-05T05:50:16.270Z,984.00
2022-08-05T05:51:15.414Z,874.00
2022-08-05T05:52:13.361Z,754.00
2022-08-05T05:53:22.159Z,671.00
2022-08-05T05:54:13.170Z,665.00
2022-08-05T05:55:13.612Z,704.00
2022-08-05T05:56:12.163Z,712.00
2022-08-05T05:57:13.867Z,680.00
2022-08-05T05:58:13.133Z,623.00
2022-08-05T05:59:12.116Z,601.00
2022-08-05T06:00:12.093Z,596.00
2022-08-05T06:01:13.305Z,608.00
2022-08-05T06:02:12.064Z,606.00
2022-08-05T06:03:40.131Z,614.00
2022-08-05T06:04:14.329Z,635.00
2022-08-05T06:05:16.465Z,673.00
2022-08-05T06:06:13.022Z,704.00
2022-08-05T06:07:11.996Z,755.00
2022-08-05T06:08:12.008Z,811.00
2022-08-05T06:09:24.959Z,865.00
2022-08-05T06:10:12.989Z,901.00
2022-08-05T06:11:11.960Z,902.00
2022-08-05T06:12:12.111Z,896.00
2022-08-05T06:13:11.931Z,891.00
2022-08-05T06:14:11.908Z,930.00
2022-08-05T06:15:23.604Z,995.00
2022-08-05T06:16:29.146Z,1088.00
2022-08-05T06:17:32.035Z,1181.00
2022-08-05T06:18:12.873Z,1229.00
2022-08-05T06:19:12.531Z,1340.00
2022-08-05T06:20:21.507Z,1515.00
2022-08-05T06:21:18.657Z,1476.00
2022-08-05T06:22:12.814Z,1333.00
2022-08-05T06:23:12.794Z,1169.00
2022-08-05T06:24:12.794Z,1051.00
2022-08-05T06:25:59.449Z,1049.00
2022-08-05T06:26:21.593Z,1139.00
2022-08-05T06:27:17.379Z,1292.00
2022-08-05T06:28:20.809Z,1456.00
2022-08-05T06:29:25.169Z,1571.00
2022-08-05T06:30:17.853Z,1592.00
2022-08-05T06:31:18.273Z,1517.00
2022-08-05T06:32:21.106Z,1409.00
2022-08-05T06:33:12.668Z,1313.00
2022-08-05T06:34:12.646Z,1230.00
2022-08-05T06:35:15.632Z,1187.00
2022-08-05T06:36:12.642Z,1253.00
2022-08-05T06:37:11.618Z,1481.00
2022-08-05T06:38:12.033Z,1831.00
2022-08-05T06:39:11.624Z,2182.00
2022-08-05T06:40:11.781Z,2541.00
2022-08-05T06:41:11.719Z,2890.00
2022-08-05T06:42:11.560Z,3173.00
2022-08-05T06:43:59.305Z,3387.00
2022-08-05T06:44:12.509Z,3490.00
2022-08-05T06:45:21.066Z,3428.00
2022-08-05T06:46:12.489Z,3367.00
2022-08-05T06:47:30.314Z,3210.00
2022-08-05T06:48:54.739Z,2919.00
2022-08-05T06:49:12.441Z,2511.00
2022-08-05T06:50:11.454Z,2091.00
2022-08-05T06:51:23.789Z,1840.00
2022-08-05T06:52:37.022Z,1753.00
2022-08-05T06:53:22.469Z,1768.00
2022-08-05T06:54:19.081Z,1887.00
2022-08-05T06:55:12.386Z,2234.00
2022-08-05T06:56:25.650Z,2845.00
2022-08-05T06:58:02.651Z,3546.00
2022-08-05T06:58:29.669Z,3956.00
2022-08-05T06:59:12.315Z,3878.00
2022-08-05T07:00:11.318Z,3434.00
2022-08-05T07:01:11.322Z,3050.00
2022-08-05T07:02:11.320Z,2962.00
2022-08-05T07:03:11.279Z,2996.00
2022-08-05T07:04:13.935Z,2956.00
2022-08-05T07:05:14.297Z,2763.00
2022-08-05T07:06:15.139Z,2586.00
2022-08-05T07:07:11.207Z,2566.00
2022-08-05T07:08:11.350Z,2671.00
2022-08-05T07:09:11.219Z,2867.00
2022-08-05T07:10:11.169Z,3045.00
2022-08-05T07:11:15.509Z,3067.00
2022-08-05T07:12:11.153Z,2868.00
2022-08-05T07:13:11.130Z,2602.00
2022-08-05T07:14:19.985Z,2398.00
2022-08-05T07:15:12.113Z,2224.00
2022-08-05T07:16:12.187Z,2053.00
2022-08-05T07:17:58.409Z,1857.00
2022-08-05T07:18:13.588Z,1684.00
2022-08-05T07:19:12.083Z,1625.00
2022-08-05T07:20:32.460Z,1651.00
2022-08-05T07:21:12.041Z,1648.00
2022-08-05T07:22:11.017Z,1566.00
2022-08-05T07:23:12.985Z,1432.00
2022-08-05T07:24:11.980Z,1459.00
2022-08-05T07:25:23.191Z,1582.00
2022-08-05T07:26:13.292Z,1600.00
2022-08-05T07:27:10.957Z,1566.00
2022-08-05T07:28:11.978Z,1555.00
2022-08-05T07:29:11.937Z,1488.00
2022-08-05T07:30:24.188Z,1410.00
2022-08-05T07:31:11.894Z,1339.00
2022-08-05T07:32:10.888Z,1396.00
2022-08-05T07:33:16.650Z,1590.00
2022-08-05T07:34:13.976Z,1860.00
2022-08-05T07:36:02.248Z,2129.00
2022-08-05T07:36:20.152Z,2295.00
2022-08-05T07:37:11.890Z,2346.00
2022-08-05T07:38:12.314Z,2262.00
2022-08-05T07:39:24.873Z,2191.00
2022-08-05T07:40:31.766Z,2198.00
2022-08-05T07:42:07.209Z,2254.00
2022-08-05T07:42:15.152Z,2291.00
2022-08-05T07:43:14.521Z,2240.00
2022-08-05T07:44:14.033Z,2157.00
2022-08-05T07:45:11.701Z,2111.00
2022-08-05T07:46:23.506Z,2134.00
2022-08-05T07:47:11.695Z,2151.00
2022-08-05T07:48:10.661Z,2129.00
2022-08-05T07:49:10.666Z,2098.00
2022-08-05T07:50:10.632Z,2115.00
2022-08-05T07:51:23.450Z,2197.00
2022-08-05T07:52:11.627Z,2399.00
2022-08-05T07:53:10.594Z,2664.00
2022-08-05T07:54:12.656Z,2910.00
2022-08-05T07:55:44.484Z,3059.00
2022-08-05T07:57:00.380Z,3260.00
2022-08-05T07:57:18.148Z,3388.00
2022-08-05T07:58:54.499Z,3310.00
2022-08-05T07:59:11.516Z,3221.00
2022-08-05T08:00:11.447Z,3216.00
2022-08-05T08:01:12.296Z,3219.00
2022-08-05T08:02:16.686Z,3132.00
2022-08-05T08:03:14.787Z,2704.00
2022-08-05T08:04:10.448Z,2731.00
2022-08-05T08:05:11.426Z,2485.00
2022-08-05T08:06:10.419Z,2425.00
2022-08-05T08:07:10.409Z,2501.00
2022-08-05T08:08:12.210Z,2587.00
2022-08-05T08:09:10.388Z,2732.00
2022-08-05T08:10:10.392Z,2797.00
2022-08-05T08:11:10.375Z,2797.00
2022-08-05T08:12:27.550Z,2915.00
2022-08-05T08:13:11.625Z,2772.00
2022-08-05T08:14:10.329Z,2551.00
2022-08-05T08:15:15.217Z,2335.00
2022-08-05T08:16:50.196Z,2293.00
2022-08-05T08:17:11.295Z,2750.00
2022-08-05T08:18:14.210Z,3362.00
2022-08-05T08:20:22.899Z,3755.00
2022-08-05T08:20:44.573Z,3847.00
2022-08-05T08:21:17.497Z,4237.00
2022-08-05T08:22:11.220Z,4782.00
2022-08-05T08:23:20.966Z,4962.00
2022-08-05T08:24:14.119Z,5203.00
2022-08-05T08:25:16.098Z,5612.00
2022-08-05T08:26:11.156Z,5112.00
2022-08-05T08:27:10.145Z,4526.00
2022-08-05T08:28:15.231Z,3868.00
2022-08-05T08:29:29.339Z,2935.00
2022-08-05T08:30:29.992Z,2649.00
2022-08-05T08:31:14.883Z,3682.00
2022-08-05T08:32:11.097Z,5082.00
2022-08-05T08:33:13.909Z,5143.00
2022-08-05T08:34:10.061Z,4844.00
2022-08-05T08:35:13.679Z,4692.00
2022-08-05T08:36:38.830Z,4526.00
2022-08-05T08:37:11.024Z,4633.00
2022-08-05T08:38:11.675Z,4792.00
2022-08-05T08:39:15.725Z,5228.00
2022-08-05T08:40:10.990Z,5490.00
2022-08-05T08:41:10.083Z,5856.00
2022-08-05T08:42:34.552Z,7420.00
2022-08-05T08:45:16.160Z,7616.00
2022-08-05T08:45:18.391Z,7288.00
2022-08-05T08:45:21.321Z,7678.00
2022-08-05T08:46:15.574Z,6368.00
2022-08-05T08:47:46.879Z,6039.00
2022-08-05T08:48:23.096Z,5531.00
2022-08-05T08:50:05.666Z,5188.00
2022-08-05T08:50:29.882Z,4941.00
2022-08-05T08:51:54.572Z,4245.00
2022-08-05T08:52:13.715Z,3733.00
2022-08-05T08:53:12.281Z,3527.00
2022-08-05T08:54:09.793Z,3302.00
2022-08-05T08:55:13.330Z,3196.00
2022-08-05T08:56:09.746Z,2960.00
2022-08-05T08:57:11.420Z,2736.00
2022-08-05T08:58:09.728Z,2482.00
2022-08-05T08:59:14.800Z,2291.00
2022-08-05T09:00:10.712Z,2168.00
2022-08-05T09:01:15.550Z,2249.00
2022-08-05T09:02:10.683Z,2259.00
2022-08-05T09:03:09.673Z,2420.00
2022-08-05T09:04:10.635Z,2467.00
2022-08-05T09:05:17.224Z,2391.00
2022-08-05T09:06:11.522Z,2227.00
2022-08-05T09:07:19.375Z,2176.00
2022-08-05T09:08:10.607Z,2207.00
2022-08-05T09:09:09.584Z,2198.00
2022-08-05T09:10:09.576Z,2137.00
2022-08-05T09:11:12.191Z,2055.00
2022-08-05T09:12:20.646Z,1997.00
2022-08-05T09:13:10.665Z,2074.00
2022-08-05T09:14:56.647Z,2282.00
2022-08-05T09:15:10.503Z,2343.00
2022-08-05T09:16:14.545Z,2153.00
2022-08-05T09:17:41.326Z,2095.00
2022-08-05T09:18:10.455Z,2249.00
2022-08-05T09:19:09.565Z,2407.00
2022-08-05T09:20:10.448Z,2456.00
2022-08-05T09:21:11.619Z,2444.00
2022-08-05T09:22:23.073Z,2435.00
2022-08-05T09:23:10.413Z,2417.00
2022-08-05T09:24:10.463Z,2271.00
2022-08-05T09:25:13.472Z,2112.00
2022-08-05T09:26:10.349Z,1916.00
2022-08-05T09:27:10.339Z,1755.00
2022-08-05T09:28:10.343Z,1837.00
2022-08-05T09:29:09.629Z,2046.00
2022-08-05T09:30:09.343Z,2712.00
2022-08-05T09:31:44.008Z,4018.00
2022-08-05T09:32:40.093Z,5351.00
2022-08-05T09:33:10.261Z,6012.00
2022-08-05T09:34:10.361Z,6002.00
2022-08-05T09:35:09.256Z,6049.00
2022-08-05T09:36:11.708Z,6247.00
2022-08-05T09:37:10.226Z,6702.00
2022-08-05T09:38:12.730Z,7369.00
2022-08-05T09:39:16.615Z,7945.00
2022-08-05T09:40:10.230Z,8158.00
2022-08-05T09:41:09.161Z,7697.00
2022-08-05T09:42:13.456Z,6669.00
2022-08-05T09:43:10.147Z,5681.00
2022-08-05T09:44:09.115Z,5216.00
2022-08-05T09:45:17.507Z,5289.00
2022-08-05T09:46:10.084Z,5300.00
2022-08-05T09:47:10.487Z,4923.00
2022-08-05T09:48:09.087Z,4792.00
2022-08-05T09:49:19.567Z,5121.00
2022-08-05T09:50:10.044Z,5239.00
2022-08-05T09:51:15.009Z,4922.00
2022-08-05T09:52:10.022Z,4624.00
2022-08-05T09:53:12.074Z,4320.00
2022-08-05T09:54:10.205Z,4154.00
2022-08-05T09:55:56.262Z,4498.00
2022-08-05T09:56:13.099Z,4827.00
2022-08-05T09:57:20.625Z,5219.00
2022-08-05T09:58:10.046Z,5845.00
2022-08-05T09:59:08.919Z,5715.00
2022-08-05T10:00:08.914Z,5046.00
2022-08-05T10:01:15.061Z,4516.00
2022-08-05T10:02:09.937Z,4252.00
2022-08-05T10:03:08.906Z,4364.00
2022-08-05T10:04:10.420Z,4714.00
2022-08-05T10:05:08.855Z,4941.00
2022-08-05T10:06:15.557Z,4983.00
2022-08-05T10:07:20.246Z,4826.00
2022-08-05T10:08:36.831Z,4316.00
2022-08-05T10:09:09.914Z,3948.00
2022-08-05T10:10:14.965Z,3703.00
2022-08-05T10:11:09.776Z,3810.00
2022-08-05T10:12:30.038Z,4435.00
2022-08-05T10:13:10.090Z,5309.00
2022-08-05T10:14:09.691Z,5179.00
2022-08-05T10:15:08.856Z,4682.00
2022-08-05T10:16:08.708Z,4943.00
2022-08-05T10:17:08.685Z,5548.00
2022-08-05T10:18:09.680Z,5829.00
2022-08-05T10:19:09.285Z,7123.00
2022-08-05T10:20:09.769Z,7359.00
2022-08-05T10:21:15.557Z,6955.00
2022-08-05T10:22:15.640Z,6082.00
2022-08-05T10:23:34.387Z,5872.00
2022-08-05T10:24:11.100Z,6554.00
2022-08-05T10:25:08.593Z,6490.00
2022-08-05T10:26:14.501Z,6799.00
2022-08-05T10:27:09.632Z,7830.00
2022-08-05T10:28:12.960Z,8379.00
2022-08-05T10:29:09.522Z,8362.00
2022-08-05T10:31:20.945Z,7790.00
2022-08-05T10:32:50.974Z,7329.00
2022-08-05T10:32:52.646Z,7048.00
2022-08-05T10:33:15.106Z,6515.00
2022-08-05T10:34:09.523Z,6592.00
2022-08-05T10:35:08.443Z,7200.00
2022-08-05T10:36:08.495Z,7457.00
2022-08-05T10:37:08.462Z,6720.00
2022-08-05T10:38:08.489Z,6238.00
2022-08-05T10:39:11.629Z,6243.00
2022-08-05T10:40:18.236Z,6639.00
2022-08-05T10:41:09.419Z,7083.00
2022-08-05T10:42:08.359Z,6820.00
2022-08-05T10:43:08.388Z,6162.00
2022-08-05T10:44:08.317Z,5803.00
2022-08-05T10:45:20.891Z,5954.00
2022-08-05T10:46:09.288Z,6257.00
2022-08-05T10:47:25.767Z,6919.00
2022-08-05T10:48:29.982Z,8010.00
2022-08-05T10:49:10.410Z,8013.00
2022-08-05T10:50:32.065Z,7761.00
2022-08-05T10:51:21.900Z,7594.00
2022-08-05T10:52:10.602Z,7310.00
2022-08-05T10:53:08.200Z,7378.00
2022-08-05T10:54:28.258Z,7240.00
2022-08-05T10:55:09.191Z,7143.00
2022-08-05T10:56:21.521Z,6961.00
2022-08-05T10:57:09.165Z,7117.00
2022-08-05T10:58:08.131Z,7366.00
2022-08-05T10:59:12.484Z,7499.00
2022-08-05T11:00:14.757Z,7295.00
2022-08-05T11:01:09.095Z,7744.00
2022-08-05T11:02:08.679Z,8518.00
2022-08-05T11:03:24.452Z,8330.00
2022-08-05T11:04:09.074Z,8533.00
2022-08-05T11:05:08.048Z,8444.00
2022-08-05T11:06:08.445Z,8816.00
2022-08-05T11:07:09.015Z,9328.00
2022-08-05T11:08:27.498Z,8959.00
2022-08-05T11:09:08.979Z,8550.00
2022-08-05T11:10:10.109Z,8334.00
2022-08-05T11:11:16.462Z,7580.00
2022-08-05T11:12:09.199Z,7510.00
2022-08-05T11:13:07.941Z,7976.00
2022-08-05T11:14:07.917Z,9039.00
2022-08-05T11:15:19.829Z,10742.00
2022-08-05T11:16:08.911Z,11451.00
2022-08-05T11:17:57.031Z,13420.00
2022-08-05T11:18:09.889Z,14766.00
2022-08-05T11:20:10.473Z,11382.00
2022-08-05T11:20:17.830Z,13390.00
2022-08-05T11:21:11.974Z,10204.00
2022-08-05T11:22:07.811Z,9615.00
2022-08-05T11:23:10.437Z,9408.00
2022-08-05T11:24:30.404Z,9578.00
2022-08-05T11:25:37.311Z,10548.00
2022-08-05T11:26:09.915Z,11979.00
2022-08-05T11:27:07.763Z,11624.00
2022-08-05T11:28:07.757Z,12141.00
2022-08-05T11:29:12.700Z,10619.00
2022-08-05T11:30:08.718Z,9602.00
2022-08-05T11:31:07.697Z,9406.00
2022-08-05T11:32:07.694Z,10168.00
2022-08-05T11:33:07.669Z,9802.00
2022-08-05T11:34:08.666Z,8658.00
2022-08-05T11:35:08.634Z,8644.00
2022-08-05T11:36:09.014Z,8577.00
2022-08-05T11:38:26.118Z,8476.00
2022-08-05T11:38:30.468Z,8534.00
2022-08-05T11:39:08.640Z,8370.00
2022-08-05T11:40:07.638Z,8446.00
2022-08-05T11:41:34.637Z,9360.00
2022-08-05T11:42:08.561Z,8967.00
2022-08-05T11:43:07.573Z,7934.00
2022-08-05T11:44:08.515Z,7712.00
2022-08-05T11:45:23.185Z,8213.00
2022-08-05T11:46:27.099Z,8479.00
2022-08-05T11:47:10.575Z,8530.00
2022-08-05T11:48:08.525Z,8750.00
2022-08-05T11:49:08.106Z,9736.00
2022-08-05T11:50:07.503Z,10767.00
2022-08-05T11:51:07.436Z,11902.00
2022-08-05T11:52:11.281Z,12355.00
2022-08-05T11:53:10.041Z,13454.00
2022-08-05T11:54:07.494Z,15007.00
2022-08-05T11:55:10.464Z,15267.00
2022-08-05T11:56:07.375Z,14206.00
2022-08-05T11:57:08.028Z,13175.00
2022-08-05T11:58:11.870Z,13096.00
2022-08-05T11:59:13.883Z,13700.00
2022-08-05T12:00:08.319Z,14404.00
2022-08-05T12:01:08.487Z,14846.00
2022-08-05T12:02:07.289Z,14237.00
2022-08-05T12:03:08.354Z,12532.00
2022-08-05T12:04:07.256Z,11402.00
2022-08-05T12:05:18.030Z,11046.00
2022-08-05T12:06:09.876Z,11478.00
2022-08-05T12:07:07.207Z,12348.00
2022-08-05T12:08:09.745Z,12843.00
2022-08-05T12:09:07.179Z,13052.00
2022-08-05T12:10:09.184Z,13168.00
2022-08-05T12:11:07.171Z,13488.00
2022-08-05T12:12:07.206Z,14562.00
2022-08-05T12:13:16.622Z,15108.00
2022-08-05T12:14:08.121Z,15911.00
2022-08-05T12:15:07.691Z,16351.00
2022-08-05T12:16:14.252Z,17598.00
2022-08-05T12:18:00.539Z,19048.00
2022-08-05T12:18:10.450Z,21437.00
2022-08-05T12:19:08.360Z,21456.00
2022-08-05T12:20:16.837Z,18506.00
2022-08-05T12:21:08.084Z,19560.00
2022-08-05T12:22:09.499Z,21062.00
2022-08-05T12:23:06.994Z,21754.00
2022-08-05T12:24:07.574Z,22995.00
2022-08-05T12:25:06.965Z,23278.00
2022-08-05T12:26:06.980Z,24410.00
2022-08-05T12:27:09.910Z,24126.00
2022-08-05T12:28:07.956Z,66486.00